Aeroporto :
LOGIN :

Iscrizione | Disclaimer

   EN    FR    IT 

 










Sommario :    VFR   VFR Marginale   IFR   IFR Intensivo   IFR Molto Intensivo
Visibilità : 
Base nubi : 
>= 8 km
>= 3000ft
5 / 8 km
1000 / 3000 ft
1500m / 5 km
500 / 1000 ft
800 / 1500m
200 / 500 ft
< 800m
< 200 ft
Simboli :   Temporali  Nebbia  Neve Forte  Precipitazioni Forti  Vento > 20 kt
SIGMETs :   Varie  Temporali  Ghiacco  Turbolenza  Onda orograficha  Ceneri Vulcaniche






- Altitudine del aeroporto : 523 ft
- Codice IATA : AUF


LFLA - Auxerre

ULTIMO METAR :
  • 231400Z AUTO 36009KT 310V040 CAVOK 10/M02 Q1018

METARs OBSOLETI :
  • 231330Z AUTO 35008KT 300V100 CAVOK 10/M01 Q1018
  • 231300Z AUTO 35008KT 330V030 CAVOK 10/M02 Q1018
  • 231230Z AUTO 33006KT 300V010 9999 SCT048 BKN060 10/M01 Q1018
  • 231200Z AUTO 02008KT 320V060 9999 BKN046 BKN058 10/M01 Q1018
  • 231130Z AUTO 35011KT 320V030 9999 ////// 09/M01 Q1019
  • 231100Z AUTO 35010KT 310V060 9999 FEW039 BKN054 BKN230 08/M01 Q1019
  • 231030Z AUTO 36010KT 330V050 9999 FEW035 BKN046 BKN056 08/M00 Q1019
  • 231000Z AUTO 36010KT 330V060 9999 SCT034 BKN043 BKN052 08/M00 Q1019
  • 230930Z AUTO 35009KT 310V060 9999 SCT030 BKN036 09/01 Q1019
  • 230900Z AUTO 36009KT 330V040 9999 FEW024 08/01 Q1019

TAF N/A



MetMap, La meteo Aeronautica in un colpo d'occhio ! - Copyright ORBIFLY Dicembre 2007 - Disclaimer

ORBIFLY MET'MAP TEAM :

Programmazione e sviluppo : Alexandra Zaïnal
Concezione : Baudouin d'Aumeries
Supporto tecnico e logistico : Manuel Goepfert
Aiuto : Marc-Olivier Méhu
Aiuto per la traduzione : Arnaldo La Scala




FONTI E CREDITI :

   NOAA